Time;durP1;ratioP1;P1;durP2;ratioP2;P2;SDS_P1;SDS_P2;PMS_P1;PMS_P2;Temp;Humidity;BMP_temperature;BMP_pressure;BME280_temperature;BME280_humidity;BME280_pressure;Samples;Min_cycle;Max_cycle;Signal;HPM_P1;HPM_P2
2022/08/23 00:01:41;;;;;;;;;;;21.50;87.60;;;;;;5035873;28;20272;-65
2022/08/23 00:04:11;;;;;;;;;;;21.60;87.90;;;;;;5042836;28;20244;-66
2022/08/23 00:06:39;;;;;;;;;;;21.50;88.20;;;;;;5039624;28;20268;-66
2022/08/23 00:09:07;;;;;;;;;;;21.40;88.70;;;;;;5041907;28;20210;-66
2022/08/23 00:11:38;;;;;;;;;;;21.30;88.60;;;;;;5042083;28;20221;-66
2022/08/23 00:14:08;;;;;;;;;;;21.30;89.10;;;;;;5042049;28;20209;-66
2022/08/23 00:16:36;;;;;;;;;;;21.20;89.50;;;;;;5046921;28;20622;-66
2022/08/23 00:19:04;;;;;;;;;;;21.20;89.70;;;;;;5034397;28;20194;-66
2022/08/23 00:21:31;;;;;;;;;;;21.20;90.00;;;;;;5035009;28;20256;-66
2022/08/23 00:23:59;;;;;;;;;;;21.10;90.00;;;;;;5031969;28;20598;-66
2022/08/23 00:26:27;;;;;;;;;;;21.00;90.40;;;;;;5031451;28;20264;-66
2022/08/23 00:28:56;;;;;;;;;;;20.90;90.40;;;;;;5032013;28;20194;-66
2022/08/23 00:31:24;;;;;;;;;;;20.90;90.60;;;;;;5045397;28;20406;-66
2022/08/23 00:33:51;;;;;;;;;;;20.80;90.80;;;;;;5051656;28;20660;-66
2022/08/23 00:36:19;;;;;;;;;;;20.90;90.80;;;;;;5046555;28;20216;-66
2022/08/23 00:38:47;;;;;;;;;;;20.80;90.90;;;;;;5051712;28;20257;-66
2022/08/23 00:41:15;;;;;;;;;;;20.80;91.10;;;;;;5051065;28;20202;-66
2022/08/23 00:49:23;;;;;;;;;;;20.60;91.40;;;;;;5063423;28;20374;-66
2022/08/23 00:51:53;;;;;;;;;;;20.60;91.40;;;;;;5039793;28;20198;-66
2022/08/23 00:54:23;;;;;;;;;;;20.60;91.70;;;;;;5045700;28;20200;-65
2022/08/23 00:56:51;;;;;;;;;;;20.70;91.80;;;;;;5043389;28;20206;-64
2022/08/23 00:59:19;;;;;;;;;;;20.60;91.80;;;;;;5044025;28;20197;-64
2022/08/23 01:01:49;;;;;;;;;;;20.70;92.00;;;;;;5043446;28;20097;-64
2022/08/23 01:04:17;;;;;;;;;;;20.60;92.10;;;;;;5050303;28;20688;-64
2022/08/23 01:06:48;;;;;;;;;;;20.70;92.30;;;;;;5045301;28;20679;-64
2022/08/23 01:09:17;;;;;;;;;;;20.70;92.50;;;;;;5048617;28;20197;-66
2022/08/23 01:11:48;;;;;;;;;;;20.60;92.30;;;;;;5047752;28;20214;-64
2022/08/23 01:14:22;;;;;;;;;;;20.60;92.60;;;;;;5045445;28;20221;-64
2022/08/23 01:16:55;;;;;;;;;;;20.60;92.40;;;;;;5045832;28;20203;-64
2022/08/23 01:19:25;;;;;;;;;;;20.60;92.70;;;;;;5050246;28;20223;-64
2022/08/23 01:22:00;;;;;;;;;;;20.50;93.30;;;;;;5039328;28;20206;-64
2022/08/23 01:24:29;;;;;;;;;;;20.60;92.70;;;;;;5043799;28;20249;-64
2022/08/23 01:27:17;;;;;;;;;;;20.60;92.90;;;;;;5043063;28;20230;-64
2022/08/23 01:29:45;;;;;;;;;;;20.70;92.90;;;;;;5040792;28;20194;-63
2022/08/23 01:32:13;;;;;;;;;;;20.80;92.90;;;;;;5039003;28;20205;-64
2022/08/23 01:34:41;;;;;;;;;;;20.80;92.90;;;;;;5043133;28;20166;-64
2022/08/23 01:37:18;;;;;;;;;;;20.70;92.90;;;;;;5040179;28;20717;-64
2022/08/23 01:39:48;;;;;;;;;;;20.60;93.20;;;;;;5042929;28;20210;-64
2022/08/23 01:42:15;;;;;;;;;;;20.50;93.40;;;;;;5040216;28;20702;-64
2022/08/23 01:44:43;;;;;;;;;;;20.40;93.60;;;;;;5051753;28;20201;-64
2022/08/23 01:47:11;;;;;;;;;;;20.30;93.80;;;;;;5048520;28;20252;-64
2022/08/23 01:49:39;;;;;;;;;;;20.30;93.90;;;;;;5040482;28;20249;-63
2022/08/23 01:52:06;;;;;;;;;;;20.40;94.30;;;;;;5042363;28;20194;-64
2022/08/23 01:54:34;;;;;;;;;;;20.40;94.00;;;;;;5049142;28;20257;-64
2022/08/23 01:57:05;;;;;;;;;;;20.40;94.10;;;;;;5045563;28;20256;-64
2022/08/23 01:59:33;;;;;;;;;;;20.30;94.30;;;;;;5041641;28;20205;-64
2022/08/23 02:02:01;;;;;;;;;;;20.30;94.50;;;;;;5051208;28;20194;-64
2022/08/23 02:04:30;;;;;;;;;;;20.30;94.50;;;;;;5053481;28;20198;-64
2022/08/23 02:06:57;;;;;;;;;;;20.60;94.70;;;;;;5051069;28;20090;-64
2022/08/23 02:09:24;;;;;;;;;;;20.60;94.10;;;;;;5045630;28;20260;-64
2022/08/23 02:11:52;;;;;;;;;;;20.80;94.00;;;;;;5041866;28;20203;-64
2022/08/23 02:14:21;;;;;;;;;;;20.90;94.50;;;;;;5044495;28;20264;-64
2022/08/23 02:16:50;;;;;;;;;;;20.90;94.60;;;;;;5043949;28;20205;-64
2022/08/23 02:19:30;;;;;;;;;;;21.00;93.90;;;;;;5050467;28;20190;-62
2022/08/23 02:21:58;;;;;;;;;;;21.10;94.00;;;;;;5043159;28;20686;-65
2022/08/23 02:24:26;;;;;;;;;;;21.00;93.70;;;;;;5041497;28;20213;-65
2022/08/23 02:26:55;;;;;;;;;;;20.90;94.40;;;;;;5048333;28;20205;-65
2022/08/23 02:29:28;;;;;;;;;;;21.30;93.90;;;;;;5048792;28;20212;-64
2022/08/23 02:31:56;;;;;;;;;;;21.30;93.30;;;;;;5040541;28;20091;-64
2022/08/23 02:34:24;;;;;;;;;;;21.10;94.00;;;;;;5043905;28;20205;-65
2022/08/23 02:37:04;;;;;;;;;;;21.20;94.20;;;;;;5053206;28;20211;-64
2022/08/23 02:39:32;;;;;;;;;;;21.20;93.80;;;;;;5053283;28;20652;-65
2022/08/23 02:42:00;;;;;;;;;;;21.40;94.10;;;;;;5048792;28;20203;-65
2022/08/23 02:44:33;;;;;;;;;;;21.50;93.30;;;;;;5043060;28;20201;-64
2022/08/23 02:47:01;;;;;;;;;;;21.40;93.90;;;;;;5053124;28;20201;-64
2022/08/23 02:49:29;;;;;;;;;;;21.20;93.60;;;;;;5052917;28;20203;-64
2022/08/23 02:51:57;;;;;;;;;;;21.00;93.90;;;;;;5049020;28;20678;-64
2022/08/23 02:54:24;;;;;;;;;;;20.80;94.40;;;;;;5032982;28;20205;-64
2022/08/23 02:56:53;;;;;;;;;;;20.70;94.50;;;;;;5044333;28;20208;-64
2022/08/23 02:59:20;;;;;;;;;;;20.60;94.70;;;;;;5049137;28;20206;-64
2022/08/23 03:01:50;;;;;;;;;;;20.40;95.00;;;;;;5045537;28;20215;-64
2022/08/23 03:04:18;;;;;;;;;;;20.20;95.50;;;;;;5048096;28;20190;-64
2022/08/23 03:06:46;;;;;;;;;;;20.20;95.60;;;;;;5052659;28;20230;-65
2022/08/23 03:09:14;;;;;;;;;;;20.20;96.20;;;;;;5034941;28;20201;-65
2022/08/23 03:11:44;;;;;;;;;;;20.10;96.00;;;;;;5044294;28;20195;-65
2022/08/23 03:14:12;;;;;;;;;;;20.10;96.40;;;;;;5046491;28;20194;-65
2022/08/23 03:16:40;;;;;;;;;;;20.20;96.50;;;;;;5049019;28;20204;-65
2022/08/23 03:19:09;;;;;;;;;;;20.20;96.40;;;;;;5052582;28;20207;-65
2022/08/23 03:21:37;;;;;;;;;;;20.40;96.00;;;;;;5052369;28;20226;-65
2022/08/23 03:24:05;;;;;;;;;;;20.40;96.40;;;;;;5050454;28;20211;-65
2022/08/23 03:26:37;;;;;;;;;;;20.70;95.80;;;;;;5072926;22;20727;-67
2022/08/23 03:29:05;;;;;;;;;;;20.60;95.70;;;;;;5029927;28;20207;-69
2022/08/23 03:31:33;;;;;;;;;;;20.40;96.00;;;;;;5031298;28;20205;-69
2022/08/23 03:34:00;;;;;;;;;;;20.30;96.60;;;;;;5032280;28;20206;-70
2022/08/23 03:36:30;;;;;;;;;;;20.30;96.40;;;;;;5032304;28;20198;-69
2022/08/23 03:38:58;;;;;;;;;;;20.20;96.70;;;;;;5007779;28;20590;-69
2022/08/23 03:41:26;;;;;;;;;;;20.10;96.90;;;;;;5005939;28;20359;-69
2022/08/23 03:43:54;;;;;;;;;;;20.00;97.30;;;;;;5004753;28;20273;-71
2022/08/23 03:46:24;;;;;;;;;;;20.10;97.70;;;;;;5010257;28;20217;-70
2022/08/23 03:48:53;;;;;;;;;;;20.50;97.30;;;;;;5006512;28;20126;-71
2022/08/23 03:51:21;;;;;;;;;;;20.50;96.80;;;;;;5006514;28;20241;-71
2022/08/23 03:53:50;;;;;;;;;;;20.50;97.00;;;;;;5011509;28;20592;-71
2022/08/23 03:56:22;;;;;;;;;;;20.50;96.60;;;;;;5004463;28;20219;-71
2022/08/23 03:58:50;;;;;;;;;;;20.60;97.10;;;;;;5010314;28;20213;-71
2022/08/23 04:01:17;;;;;;;;;;;20.80;96.80;;;;;;5010036;28;20246;-70
2022/08/23 04:03:46;;;;;;;;;;;21.10;96.60;;;;;;5012277;28;20550;-70
2022/08/23 04:06:14;;;;;;;;;;;21.20;96.30;;;;;;5012603;28;20787;-70
2022/08/23 04:08:42;;;;;;;;;;;21.10;95.90;;;;;;5012230;28;20211;-70
2022/08/23 04:11:13;;;;;;;;;;;21.00;96.30;;;;;;5011960;28;20258;-70
2022/08/23 04:13:41;;;;;;;;;;;20.80;96.30;;;;;;5012200;28;20270;-70
2022/08/23 04:16:09;;;;;;;;;;;20.60;96.70;;;;;;5008244;28;20793;-70
2022/08/23 04:18:37;;;;;;;;;;;20.60;97.00;;;;;;5012519;28;20199;-71
2022/08/23 04:21:08;;;;;;;;;;;20.60;96.90;;;;;;5015006;28;20205;-70
2022/08/23 04:23:38;;;;;;;;;;;20.70;96.90;;;;;;5007494;28;20215;-68
2022/08/23 04:26:06;;;;;;;;;;;20.40;97.10;;;;;;5006920;28;20261;-68
2022/08/23 04:28:37;;;;;;;;;;;20.30;97.40;;;;;;5006535;28;20303;-68
2022/08/23 04:31:05;;;;;;;;;;;20.20;97.60;;;;;;5006910;28;20321;-68
2022/08/23 04:33:34;;;;;;;;;;;20.10;97.90;;;;;;5004686;28;20137;-68
2022/08/23 04:36:07;;;;;;;;;;;19.80;98.20;;;;;;5007243;28;25099;-69
2022/08/23 04:38:34;;;;;;;;;;;19.90;99.10;;;;;;5007719;28;20723;-68
2022/08/23 04:43:49;;;;;;;;;;;20.20;98.40;;;;;;5005080;28;20082;-69
2022/08/23 04:46:17;;;;;;;;;;;20.10;98.80;;;;;;5005607;28;20116;-69
2022/08/23 04:48:45;;;;;;;;;;;19.80;99.10;;;;;;5006626;28;20604;-68
2022/08/23 04:51:13;;;;;;;;;;;19.70;99.60;;;;;;5006561;28;20214;-67
2022/08/23 04:53:42;;;;;;;;;;;19.60;99.80;;;;;;5004934;28;20207;-67
2022/08/23 04:56:10;;;;;;;;;;;19.50;99.90;;;;;;5006431;28;20214;-68
2022/08/23 04:58:38;;;;;;;;;;;19.50;99.90;;;;;;5006452;28;20224;-69
2022/08/23 05:01:09;;;;;;;;;;;19.50;99.90;;;;;;5006387;28;20238;-69
2022/08/23 05:03:37;;;;;;;;;;;19.60;99.90;;;;;;5004812;28;20230;-69
2022/08/23 05:06:05;;;;;;;;;;;19.50;99.90;;;;;;5006143;28;20726;-68
2022/08/23 05:08:33;;;;;;;;;;;19.50;99.90;;;;;;5006139;28;20271;-69
2022/08/23 05:11:02;;;;;;;;;;;19.50;99.90;;;;;;5005987;28;20261;-68
2022/08/23 05:13:30;;;;;;;;;;;19.50;99.90;;;;;;5004295;28;20277;-69
2022/08/23 05:16:01;;;;;;;;;;;19.50;99.90;;;;;;5005856;28;20215;-69
2022/08/23 05:18:31;;;;;;;;;;;19.50;99.90;;;;;;5006081;28;20212;-69
2022/08/23 05:20:59;;;;;;;;;;;19.30;99.90;;;;;;5005612;28;20211;-68
2022/08/23 05:23:27;;;;;;;;;;;19.30;99.90;;;;;;5003335;28;20207;-69
2022/08/23 05:25:59;;;;;;;;;;;19.30;99.90;;;;;;5005694;28;20282;-69
2022/08/23 05:28:28;;;;;;;;;;;19.20;99.90;;;;;;5005066;28;20215;-69
2022/08/23 05:30:58;;;;;;;;;;;19.20;99.90;;;;;;5005242;28;20203;-69
2022/08/23 05:33:28;;;;;;;;;;;19.30;99.90;;;;;;5003939;28;20203;-69
2022/08/23 05:35:58;;;;;;;;;;;19.30;99.90;;;;;;5005507;28;20214;-68
2022/08/23 05:38:26;;;;;;;;;;;19.40;99.90;;;;;;5005422;28;20667;-69
2022/08/23 05:40:54;;;;;;;;;;;19.40;99.90;;;;;;5004487;28;20430;-68
2022/08/23 05:43:26;;;;;;;;;;;19.40;99.90;;;;;;5003737;28;20843;-68
2022/08/23 05:46:04;;;;;;;;;;;19.50;99.90;;;;;;5005063;28;20198;-68
2022/08/23 05:48:33;;;;;;;;;;;19.50;99.90;;;;;;5005732;28;20322;-68
2022/08/23 05:51:09;;;;;;;;;;;19.60;99.90;;;;;;5005032;28;20111;-69
2022/08/23 05:53:37;;;;;;;;;;;19.70;99.90;;;;;;5004061;28;20279;-67
2022/08/23 05:56:09;;;;;;;;;;;19.70;99.90;;;;;;5005620;28;20206;-68
2022/08/23 05:58:37;;;;;;;;;;;19.70;99.90;;;;;;5004695;28;20643;-68
2022/08/23 06:01:05;;;;;;;;;;;19.80;99.90;;;;;;5005218;28;20258;-68
2022/08/23 06:03:33;;;;;;;;;;;19.90;99.90;;;;;;5003714;28;21520;-69
2022/08/23 06:06:01;;;;;;;;;;;19.90;99.90;;;;;;5005247;28;20207;-70
2022/08/23 06:08:30;;;;;;;;;;;20.10;99.90;;;;;;5004879;28;20211;-69
2022/08/23 06:10:59;;;;;;;;;;;20.20;99.90;;;;;;5003628;28;21459;-68
2022/08/23 06:13:27;;;;;;;;;;;20.30;99.90;;;;;;5002203;28;20199;-68
2022/08/23 06:15:56;;;;;;;;;;;20.40;99.90;;;;;;5003876;28;20195;-67
2022/08/23 06:18:24;;;;;;;;;;;20.40;99.90;;;;;;5004569;28;20234;-67
2022/08/23 06:20:59;;;;;;;;;;;20.50;99.90;;;;;;5004075;28;20307;-67
2022/08/23 06:23:27;;;;;;;;;;;20.50;99.90;;;;;;5002949;28;20208;-67
2022/08/23 06:25:57;;;;;;;;;;;20.60;99.90;;;;;;5004319;28;20086;-70
2022/08/23 06:28:25;;;;;;;;;;;20.70;99.90;;;;;;5004477;28;20222;-69
2022/08/23 06:30:53;;;;;;;;;;;20.70;99.90;;;;;;5004410;28;20708;-67
2022/08/23 06:33:21;;;;;;;;;;;20.70;99.90;;;;;;5002219;28;20243;-67
2022/08/23 06:35:50;;;;;;;;;;;20.80;99.90;;;;;;5002927;28;20555;-67
2022/08/23 06:38:18;;;;;;;;;;;20.80;99.90;;;;;;5003445;28;20253;-68
2022/08/23 06:40:46;;;;;;;;;;;20.90;99.90;;;;;;5018645;28;20324;-68
2022/08/23 06:43:17;;;;;;;;;;;20.80;99.90;;;;;;5008305;28;20195;-69
2022/08/23 06:45:45;;;;;;;;;;;20.90;99.90;;;;;;5011770;28;20680;-69
2022/08/23 06:48:21;;;;;;;;;;;21.00;99.90;;;;;;5012346;28;20096;-69
2022/08/23 06:50:49;;;;;;;;;;;21.00;99.90;;;;;;5020324;28;20679;-68
2022/08/23 06:53:17;;;;;;;;;;;21.00;99.90;;;;;;5032132;28;20597;-69
2022/08/23 06:55:44;;;;;;;;;;;21.20;99.90;;;;;;5032949;28;20213;-69
2022/08/23 06:58:13;;;;;;;;;;;21.30;99.90;;;;;;5033064;28;20286;-68
2022/08/23 07:00:42;;;;;;;;;;;21.40;99.90;;;;;;5032748;28;20252;-69
2022/08/23 07:03:09;;;;;;;;;;;21.40;99.90;;;;;;5032827;28;20213;-69
2022/08/23 07:05:37;;;;;;;;;;;21.50;99.80;;;;;;5030042;28;20195;-68
2022/08/23 07:08:05;;;;;;;;;;;21.60;99.70;;;;;;5019766;28;20218;-69
2022/08/23 07:10:34;;;;;;;;;;;21.70;99.90;;;;;;5032668;28;20206;-69
2022/08/23 07:13:02;;;;;;;;;;;21.80;99.50;;;;;;5033093;28;20232;-69
2022/08/23 07:15:30;;;;;;;;;;;21.90;99.90;;;;;;5032648;28;20207;-69
2022/08/23 07:17:59;;;;;;;;;;;22.00;99.00;;;;;;5032427;28;20207;-69
2022/08/23 07:20:28;;;;;;;;;;;22.10;98.60;;;;;;5032446;28;20226;-69
2022/08/23 07:22:56;;;;;;;;;;;22.20;99.30;;;;;;5027079;28;20195;-69
2022/08/23 07:25:25;;;;;;;;;;;22.30;98.50;;;;;;5012655;28;20211;-69
2022/08/23 07:27:54;;;;;;;;;;;22.30;98.60;;;;;;5014055;28;20664;-69
2022/08/23 07:30:21;;;;;;;;;;;22.40;98.60;;;;;;5017959;28;20203;-68
2022/08/23 07:32:49;;;;;;;;;;;22.50;98.20;;;;;;5012409;28;20199;-69
2022/08/23 07:35:18;;;;;;;;;;;22.60;97.90;;;;;;5012666;28;20323;-68
2022/08/23 07:37:48;;;;;;;;;;;22.70;97.90;;;;;;5012705;28;20195;-69
2022/08/23 07:40:18;;;;;;;;;;;22.90;98.20;;;;;;5012387;28;20206;-68
2022/08/23 07:42:47;;;;;;;;;;;23.20;97.40;;;;;;5012630;28;20283;-69
2022/08/23 07:45:16;;;;;;;;;;;23.30;97.10;;;;;;5013559;28;20593;-69
2022/08/23 07:47:44;;;;;;;;;;;23.50;96.70;;;;;;5012264;28;20686;-69
2022/08/23 07:50:18;;;;;;;;;;;23.70;97.00;;;;;;5012260;28;20199;-69
2022/08/23 07:52:46;;;;;;;;;;;23.90;96.00;;;;;;5011350;28;20199;-68
2022/08/23 07:55:14;;;;;;;;;;;23.90;95.80;;;;;;5011558;28;20199;-69
2022/08/23 07:57:42;;;;;;;;;;;23.90;95.80;;;;;;5011957;28;20211;-68
2022/08/23 08:00:10;;;;;;;;;;;24.00;95.70;;;;;;5012784;28;20203;-69
2022/08/23 08:02:37;;;;;;;;;;;24.10;95.60;;;;;;5031760;28;20556;-69
2022/08/23 08:05:06;;;;;;;;;;;24.30;95.50;;;;;;5031774;28;20632;-69
2022/08/23 08:07:35;;;;;;;;;;;24.50;95.40;;;;;;5028589;28;20590;-69
2022/08/23 08:10:05;;;;;;;;;;;24.60;95.60;;;;;;5012183;28;20640;-69
2022/08/23 08:12:32;;;;;;;;;;;24.80;95.50;;;;;;5011929;28;20199;-68
2022/08/23 08:15:00;;;;;;;;;;;25.10;94.30;;;;;;5012202;28;20245;-68
2022/08/23 08:17:28;;;;;;;;;;;25.30;94.00;;;;;;5012016;28;20199;-69
2022/08/23 08:19:55;;;;;;;;;;;25.50;93.40;;;;;;5011844;28;20658;-68
2022/08/23 08:22:23;;;;;;;;;;;25.60;93.40;;;;;;5011696;28;20192;-69
2022/08/23 08:24:52;;;;;;;;;;;25.80;93.00;;;;;;5013134;28;20683;-69
2022/08/23 08:27:20;;;;;;;;;;;26.00;92.20;;;;;;5011708;28;20664;-69
2022/08/23 08:29:48;;;;;;;;;;;26.30;92.20;;;;;;5011768;28;20195;-69
2022/08/23 08:32:16;;;;;;;;;;;26.30;92.00;;;;;;5011699;28;20203;-69
2022/08/23 08:34:43;;;;;;;;;;;26.60;91.60;;;;;;5012069;28;20479;-69
2022/08/23 08:37:11;;;;;;;;;;;26.90;91.40;;;;;;5011919;28;20682;-69
2022/08/23 08:39:44;;;;;;;;;;;27.30;90.70;;;;;;5011675;28;20258;-69
2022/08/23 08:42:26;;;;;;;;;;;27.50;90.30;;;;;;5012785;28;20204;-69
2022/08/23 08:44:56;;;;;;;;;;;27.70;89.30;;;;;;5012001;28;20225;-69
2022/08/23 08:47:28;;;;;;;;;;;27.90;90.90;;;;;;5011965;28;20199;-70
2022/08/23 08:50:01;;;;;;;;;;;28.00;90.30;;;;;;5014673;28;20207;-70
2022/08/23 08:52:30;;;;;;;;;;;28.10;89.40;;;;;;5022939;28;20592;-69
2022/08/23 08:55:02;;;;;;;;;;;28.00;89.10;;;;;;5012096;28;20195;-69
2022/08/23 08:57:36;;;;;;;;;;;28.10;89.70;;;;;;5011772;28;20207;-69
2022/08/23 09:00:06;;;;;;;;;;;28.20;89.30;;;;;;5011486;28;20246;-69
2022/08/23 09:02:34;;;;;;;;;;;28.30;88.70;;;;;;5011444;28;20222;-70
2022/08/23 09:05:04;;;;;;;;;;;28.30;89.20;;;;;;5012865;28;20199;-69
2022/08/23 09:07:38;;;;;;;;;;;28.50;88.90;;;;;;5014491;28;20219;-69
2022/08/23 09:10:21;;;;;;;;;;;28.70;88.00;;;;;;5015152;28;20199;-70
2022/08/23 09:12:54;;;;;;;;;;;29.10;88.10;;;;;;5015219;28;20222;-69
2022/08/23 09:15:27;;;;;;;;;;;29.10;87.20;;;;;;5015469;28;20261;-69
2022/08/23 09:17:56;;;;;;;;;;;29.30;87.40;;;;;;5015084;28;20213;-70
2022/08/23 09:20:26;;;;;;;;;;;29.30;84.80;;;;;;5015003;28;20238;-70
2022/08/23 09:23:04;;;;;;;;;;;29.50;85.40;;;;;;5016357;28;20249;-70
2022/08/23 09:25:32;;;;;;;;;;;29.80;84.20;;;;;;5014858;28;20210;-69
2022/08/23 09:28:01;;;;;;;;;;;29.80;85.10;;;;;;5015705;28;20222;-70
2022/08/23 09:30:47;;;;;;;;;;;30.10;83.80;;;;;;5014512;28;20268;-69
2022/08/23 09:33:16;;;;;;;;;;;30.50;84.60;;;;;;5014883;28;20200;-68
2022/08/23 09:35:44;;;;;;;;;;;30.50;84.10;;;;;;5014891;28;20210;-69
2022/08/23 09:38:18;;;;;;;;;;;30.40;82.60;;;;;;5015810;28;20231;-69
2022/08/23 09:40:47;;;;;;;;;;;30.20;81.40;;;;;;5014641;28;20243;-69
2022/08/23 09:43:18;;;;;;;;;;;30.20;82.10;;;;;;5014640;28;20257;-70
2022/08/23 09:45:54;;;;;;;;;;;30.20;81.40;;;;;;5014803;28;20245;-69
2022/08/23 09:48:35;;;;;;;;;;;30.50;81.20;;;;;;5014190;28;20700;-66
2022/08/23 09:51:07;;;;;;;;;;;30.90;81.00;;;;;;5014436;28;20203;-67
2022/08/23 09:53:35;;;;;;;;;;;31.10;80.80;;;;;;5014606;28;20604;-67
2022/08/23 09:56:11;;;;;;;;;;;31.20;79.30;;;;;;4994793;28;20628;-68
2022/08/23 09:58:41;;;;;;;;;;;31.40;78.90;;;;;;4994782;28;20668;-67
2022/08/23 10:01:12;;;;;;;;;;;31.70;78.90;;;;;;4994661;28;20234;-67
2022/08/23 10:03:41;;;;;;;;;;;31.70;78.60;;;;;;4994835;28;20199;-67
2022/08/23 10:06:11;;;;;;;;;;;32.00;77.70;;;;;;4994577;28;20187;-70
2022/08/23 10:08:50;;;;;;;;;;;32.10;76.90;;;;;;4994444;28;20208;-69
2022/08/23 10:11:21;;;;;;;;;;;32.20;77.00;;;;;;4999509;28;20202;-70
2022/08/23 10:13:51;;;;;;;;;;;32.40;76.40;;;;;;5033724;28;20205;-69
2022/08/23 10:16:25;;;;;;;;;;;32.60;77.20;;;;;;5033705;28;20273;-69
2022/08/23 10:18:56;;;;;;;;;;;32.80;75.90;;;;;;5033020;28;20210;-69
2022/08/23 10:21:28;;;;;;;;;;;32.70;76.10;;;;;;5033649;28;20253;-70
2022/08/23 10:24:08;;;;;;;;;;;32.60;75.40;;;;;;5033645;28;20650;-69
2022/08/23 10:26:39;;;;;;;;;;;32.50;76.40;;;;;;5031591;28;20179;-69
2022/08/23 10:31:59;;;;;;;;;;;32.80;75.10;;;;;;5033605;28;20209;-69
2022/08/23 10:34:33;;;;;;;;;;;32.50;75.60;;;;;;5028380;28;20199;-70
2022/08/23 10:37:07;;;;;;;;;;;32.80;74.40;;;;;;5013324;28;20196;-69
2022/08/23 10:39:39;;;;;;;;;;;33.00;75.10;;;;;;5013431;28;20670;-68
2022/08/23 10:42:12;;;;;;;;;;;33.20;74.50;;;;;;5013607;28;20171;-70
2022/08/23 10:44:45;;;;;;;;;;;33.30;74.60;;;;;;5013407;28;20635;-69
2022/08/23 10:47:26;;;;;;;;;;;33.40;73.80;;;;;;5013384;28;20203;-70
2022/08/23 10:49:56;;;;;;;;;;;33.60;73.70;;;;;;5017469;28;20236;-69
2022/08/23 10:52:27;;;;;;;;;;;33.80;72.20;;;;;;5032813;28;20175;-68
2022/08/23 10:54:59;;;;;;;;;;;34.10;72.80;;;;;;5033100;28;20190;-69
2022/08/23 10:57:30;;;;;;;;;;;34.50;72.50;;;;;;5033107;28;20197;-70
2022/08/23 11:00:01;;;;;;;;;;;34.50;72.20;;;;;;5032586;28;20212;-70
2022/08/23 11:02:32;;;;;;;;;;;34.30;71.50;;;;;;5033307;28;20285;-70
2022/08/23 11:05:02;;;;;;;;;;;34.20;71.30;;;;;;5030846;28;20261;-68
2022/08/23 11:07:33;;;;;;;;;;;34.30;71.10;;;;;;5019950;28;20204;-68
2022/08/23 11:10:08;;;;;;;;;;;34.70;72.20;;;;;;5032690;28;20174;-69
2022/08/23 11:12:52;;;;;;;;;;;34.80;71.60;;;;;;5033010;28;20178;-70
2022/08/23 11:15:27;;;;;;;;;;;35.00;70.70;;;;;;5032757;28;20249;-70
2022/08/23 11:17:58;;;;;;;;;;;34.80;70.10;;;;;;5032454;28;20199;-69
2022/08/23 11:20:44;;;;;;;;;;;34.60;70.50;;;;;;5032533;28;20672;-69
2022/08/23 11:23:12;;;;;;;;;;;34.70;69.90;;;;;;5022738;28;20598;-70
2022/08/23 11:25:42;;;;;;;;;;;34.80;69.80;;;;;;5012717;28;20189;-70
2022/08/23 11:28:28;;;;;;;;;;;34.60;69.30;;;;;;5012441;28;20241;-69
2022/08/23 11:31:00;;;;;;;;;;;34.90;69.40;;;;;;5013047;28;20173;-70
2022/08/23 11:33:32;;;;;;;;;;;35.30;69.50;;;;;;5012745;28;20183;-70
2022/08/23 11:36:15;;;;;;;;;;;35.30;69.40;;;;;;5013063;28;20419;-70
2022/08/23 11:39:04;;;;;;;;;;;35.50;68.80;;;;;;5012307;28;20201;-69
2022/08/23 11:41:33;;;;;;;;;;;35.20;69.20;;;;;;5028427;28;20166;-70
2022/08/23 11:44:21;;;;;;;;;;;34.90;68.40;;;;;;5032297;28;20642;-70
2022/08/23 11:47:02;;;;;;;;;;;35.00;68.70;;;;;;5032140;28;20528;-69
2022/08/23 11:49:48;;;;;;;;;;;35.10;69.20;;;;;;5032016;28;20191;-70
2022/08/23 11:52:22;;;;;;;;;;;35.00;68.40;;;;;;5032239;28;20182;-70
2022/08/23 11:55:04;;;;;;;;;;;35.30;67.80;;;;;;5029784;28;20193;-70
2022/08/23 11:57:47;;;;;;;;;;;35.10;69.10;;;;;;5012160;28;20200;-70
2022/08/23 12:00:17;;;;;;;;;;;35.40;68.30;;;;;;5012188;28;20215;-69
2022/08/23 12:03:01;;;;;;;;;;;35.50;67.70;;;;;;5012333;28;20185;-70
2022/08/23 12:06:02;;;;;;;;;;;35.50;66.70;;;;;;5012424;28;20169;-70
2022/08/23 12:08:33;;;;;;;;;;;35.60;67.80;;;;;;5012070;28;20220;-70
2022/08/23 12:11:03;;;;;;;;;;;35.60;66.50;;;;;;5012002;28;20208;-70
2022/08/23 12:13:44;;;;;;;;;;;36.10;66.80;;;;;;5012291;28;20185;-68
2022/08/23 12:16:27;;;;;;;;;;;36.40;65.50;;;;;;5012067;28;20196;-68
2022/08/23 12:18:58;;;;;;;;;;;36.70;66.00;;;;;;5019429;28;20248;-68
2022/08/23 12:21:27;;;;;;;;;;;36.80;65.30;;;;;;5031843;28;20195;-68
2022/08/23 12:23:56;;;;;;;;;;;37.10;64.10;;;;;;5031844;28;20185;-68
2022/08/23 12:26:29;;;;;;;;;;;37.60;64.40;;;;;;5031792;28;20200;-68
2022/08/23 12:29:01;;;;;;;;;;;37.70;63.90;;;;;;5029651;28;20567;-68
2022/08/23 12:31:33;;;;;;;;;;;37.50;62.70;;;;;;5031628;28;20543;-68
2022/08/23 12:34:12;;;;;;;;;;;36.60;63.20;;;;;;5031954;28;20184;-67
2022/08/23 12:36:46;;;;;;;;;;;36.60;64.20;;;;;;5031691;28;20233;-68
2022/08/23 12:39:23;;;;;;;;;;;36.80;62.50;;;;;;5031481;28;20169;-68
2022/08/23 12:41:54;;;;;;;;;;;36.70;61.90;;;;;;5033455;28;20684;-68
2022/08/23 12:44:23;;;;;;;;;;;37.10;62.70;;;;;;5036001;28;20167;-68
2022/08/23 12:46:52;;;;;;;;;;;37.10;61.00;;;;;;5033810;28;20755;-68
2022/08/23 12:49:25;;;;;;;;;;;36.80;62.00;;;;;;5035390;28;20220;-68
2022/08/23 12:51:54;;;;;;;;;;;36.50;62.10;;;;;;5035308;28;20671;-68
2022/08/23 12:54:31;;;;;;;;;;;36.50;62.10;;;;;;5035324;28;20206;-68
2022/08/23 12:57:00;;;;;;;;;;;36.50;62.60;;;;;;5035363;28;20555;-68
2022/08/23 12:59:34;;;;;;;;;;;36.60;60.30;;;;;;5035084;28;20653;-67
2022/08/23 13:02:03;;;;;;;;;;;36.90;61.20;;;;;;5033998;28;20585;-67
2022/08/23 13:04:34;;;;;;;;;;;36.50;61.50;;;;;;4995720;28;20554;-68
2022/08/23 13:07:04;;;;;;;;;;;36.40;61.10;;;;;;4996258;28;20591;-68
2022/08/23 13:09:34;;;;;;;;;;;36.70;62.20;;;;;;4995498;28;20189;-67
2022/08/23 13:12:02;;;;;;;;;;;36.80;60.40;;;;;;4995876;28;20204;-67
2022/08/23 13:14:35;;;;;;;;;;;36.80;59.40;;;;;;4995695;28;20216;-68
2022/08/23 13:17:13;;;;;;;;;;;37.10;59.70;;;;;;4995840;28;20237;-68
2022/08/23 13:19:42;;;;;;;;;;;37.00;58.30;;;;;;5015198;28;20185;-67
2022/08/23 13:22:11;;;;;;;;;;;37.10;58.40;;;;;;5015142;28;20190;-68
2022/08/23 13:24:39;;;;;;;;;;;37.60;58.90;;;;;;5014998;28;20540;-68
2022/08/23 13:27:11;;;;;;;;;;;37.70;58.00;;;;;;5014674;28;20965;-68
2022/08/23 13:29:48;;;;;;;;;;;38.00;57.60;;;;;;4998487;28;20210;-68
2022/08/23 13:32:26;;;;;;;;;;;38.50;58.40;;;;;;5015016;28;20229;-68
2022/08/23 13:35:15;;;;;;;;;;;39.00;57.90;;;;;;5014761;28;20533;-68
2022/08/23 13:37:45;;;;;;;;;;;39.40;57.00;;;;;;4994851;28;20251;-68
2022/08/23 13:40:15;;;;;;;;;;;38.80;56.70;;;;;;4995000;28;20198;-67
2022/08/23 13:42:47;;;;;;;;;;;38.70;57.70;;;;;;4995056;28;20280;-68
2022/08/23 13:45:19;;;;;;;;;;;38.70;57.10;;;;;;4995233;28;20210;-68
2022/08/23 13:47:48;;;;;;;;;;;38.90;56.70;;;;;;4994829;28;20613;-67
2022/08/23 13:50:21;;;;;;;;;;;38.50;57.00;;;;;;4994723;28;20190;-68
2022/08/23 13:52:49;;;;;;;;;;;38.60;56.70;;;;;;5013033;28;20182;-67
2022/08/23 13:55:40;;;;;;;;;;;38.40;56.40;;;;;;5014343;28;20576;-68
2022/08/23 13:58:09;;;;;;;;;;;38.40;57.40;;;;;;5014315;28;20271;-67
2022/08/23 14:00:37;;;;;;;;;;;39.10;55.70;;;;;;5014120;28;20532;-68
2022/08/23 14:03:06;;;;;;;;;;;39.40;54.70;;;;;;5014416;28;20558;-68
2022/08/23 14:05:35;;;;;;;;;;;39.50;55.10;;;;;;5014349;28;20193;-68
2022/08/23 14:08:03;;;;;;;;;;;39.40;54.50;;;;;;5014034;28;20452;-67
2022/08/23 14:10:31;;;;;;;;;;;39.50;55.40;;;;;;5030521;28;20726;-68
2022/08/23 14:13:00;;;;;;;;;;;39.60;54.40;;;;;;5033952;28;20194;-68
2022/08/23 14:15:29;;;;;;;;;;;39.90;54.40;;;;;;5033774;28;20186;-68
2022/08/23 14:18:17;;;;;;;;;;;39.20;53.60;;;;;;5015902;28;20199;-67
2022/08/23 14:20:47;;;;;;;;;;;39.10;53.70;;;;;;5033607;28;20185;-67
2022/08/23 14:23:18;;;;;;;;;;;39.20;53.70;;;;;;5033805;28;20197;-68
2022/08/23 14:25:46;;;;;;;;;;;39.70;53.20;;;;;;5018973;28;20198;-68
2022/08/23 14:28:13;;;;;;;;;;;40.10;52.10;;;;;;5013553;28;20278;-67
2022/08/23 14:30:41;;;;;;;;;;;40.50;53.40;;;;;;5013679;28;20631;-67
2022/08/23 14:33:09;;;;;;;;;;;40.50;53.10;;;;;;5014101;28;20206;-68
2022/08/23 14:35:37;;;;;;;;;;;40.80;54.10;;;;;;5013877;28;20609;-68
2022/08/23 14:38:06;;;;;;;;;;;40.90;53.40;;;;;;5013403;28;20715;-69
2022/08/23 14:40:34;;;;;;;;;;;41.00;54.10;;;;;;5013337;28;20204;-68
2022/08/23 14:43:04;;;;;;;;;;;40.90;53.20;;;;;;5014759;28;20180;-68
2022/08/23 14:45:31;;;;;;;;;;;40.70;53.50;;;;;;5013603;28;20620;-68
2022/08/23 14:47:59;;;;;;;;;;;39.80;53.30;;;;;;5013337;28;20204;-69